Time;durP1;ratioP1;P1;durP2;ratioP2;P2;SDS_P1;SDS_P2;PMS_P1;PMS_P2;Temp;Humidity;BMP_temperature;BMP_pressure;BME280_temperature;BME280_humidity;BME280_pressure;Samples;Min_cycle;Max_cycle;Signal;HPM_P1;HPM_P2
2022/04/28 00:01:39;;;;;;;17.53;6.57;;;;;;;;;;5067250;28;20523;-67
2022/04/28 00:04:04;;;;;;;12.20;5.30;;;;;;;;;;5081540;28;20177;-66
2022/04/28 00:06:29;;;;;;;14.13;6.13;;;;;;;;;;5070248;28;20229;-66
2022/04/28 00:08:55;;;;;;;10.20;5.17;;;;;;;;;;5057909;28;20239;-66
2022/04/28 00:11:20;;;;;;;18.60;6.30;;;;;;;;;;5067510;28;20548;-66
2022/04/28 00:13:45;;;;;;;12.97;6.60;;;;;;;;;;5065850;28;20571;-66
2022/04/28 00:16:11;;;;;;;13.80;5.50;;;;;;;;;;5067664;28;20333;-66
2022/04/28 00:18:36;;;;;;;13.93;6.60;;;;;;;;;;5067718;28;20509;-66
2022/04/28 00:21:02;;;;;;;14.73;6.30;;;;;;;;;;5068930;28;20184;-67
2022/04/28 00:23:27;;;;;;;12.03;6.60;;;;;;;;;;5069681;28;20185;-66
2022/04/28 00:25:53;;;;;;;12.07;6.37;;;;;;;;;;5061482;28;20175;-67
2022/04/28 00:28:20;;;;;;;9.27;5.90;;;;;;;;;;5064290;28;20170;-67
2022/04/28 00:30:46;;;;;;;18.47;6.67;;;;;;;;;;5067832;28;20659;-66
2022/04/28 00:33:11;;;;;;;11.07;5.97;;;;;;;;;;5067173;28;20326;-66
2022/04/28 00:35:38;;;;;;;21.50;6.50;;;;;;;;;;5067226;28;20208;-66
2022/04/28 00:38:04;;;;;;;10.60;6.03;;;;;;;;;;5061760;28;20177;-66
2022/04/28 00:40:29;;;;;;;18.07;6.93;;;;;;;;;;5067133;28;20231;-65
2022/04/28 00:43:18;;;;;;;16.77;6.20;;;;;;;;;;5066542;28;20180;-66
2022/04/28 00:45:39;;;;;;;16.37;7.00;;;;;;;;;;5063303;28;20199;-66
2022/04/28 00:50:49;;;;;;;10.93;6.90;;;;;;;;;;5055209;28;20743;-66
2022/04/28 00:53:15;;;;;;;14.40;6.50;;;;;;;;;;5069957;28;20267;-67
2022/04/28 00:55:42;;;;;;;17.37;7.57;;;;;;;;;;5054418;28;20180;-67
2022/04/28 00:58:07;;;;;;;15.10;8.50;;;;;;;;;;5068552;28;20676;-66
2022/04/28 01:00:33;;;;;;;13.50;7.70;;;;;;;;;;5067064;28;20204;-66
2022/04/28 01:02:58;;;;;;;19.83;9.07;;;;;;;;;;5067619;28;20212;-66
2022/04/28 01:05:26;;;;;;;23.90;9.87;;;;;;;;;;5063391;28;20358;-66
2022/04/28 01:07:51;;;;;;;22.43;9.23;;;;;;;;;;5068602;28;20224;-66
2022/04/28 01:10:17;;;;;;;24.50;10.50;;;;;;;;;;5064473;28;20559;-66
2022/04/28 01:12:43;;;;;;;23.20;9.70;;;;;;;;;;5066783;28;20181;-66
2022/04/28 01:15:09;;;;;;;21.83;10.30;;;;;;;;;;5068949;28;20181;-66
2022/04/28 01:17:34;;;;;;;19.67;9.50;;;;;;;;;;5067724;28;20176;-66
2022/04/28 01:20:00;;;;;;;17.37;9.87;;;;;;;;;;5059033;28;20229;-66
2022/04/28 01:22:26;;;;;;;22.13;9.47;;;;;;;;;;5067121;28;20797;-66
2022/04/28 01:24:51;;;;;;;27.37;9.87;;;;;;;;;;5066570;28;20184;-66
2022/04/28 01:27:18;;;;;;;16.83;9.83;;;;;;;;;;5067441;28;20185;-67
2022/04/28 01:29:43;;;;;;;17.53;9.83;;;;;;;;;;5058057;28;20177;-66
2022/04/28 01:32:09;;;;;;;20.47;9.33;;;;;;;;;;5059223;28;20299;-66
2022/04/28 01:34:34;;;;;;;19.87;8.70;;;;;;;;;;5059312;28;20234;-66
2022/04/28 01:36:59;;;;;;;21.03;10.20;;;;;;;;;;5066409;28;20181;-66
2022/04/28 01:39:25;;;;;;;20.13;8.93;;;;;;;;;;5058057;28;20201;-66
2022/04/28 01:41:50;;;;;;;22.67;9.93;;;;;;;;;;5066573;28;20181;-67
2022/04/28 01:44:16;;;;;;;19.77;9.30;;;;;;;;;;5061140;28;20281;-67
2022/04/28 01:46:42;;;;;;;17.17;9.47;;;;;;;;;;5065799;28;20753;-67
2022/04/28 01:49:07;;;;;;;21.03;9.07;;;;;;;;;;5065050;28;20177;-67
2022/04/28 01:57:01;;;;;;;23.20;8.13;;;;;;;;;;5063986;28;20196;-67
2022/04/28 01:59:26;;;;;;;18.17;8.83;;;;;;;;;;5063599;28;20209;-66
2022/04/28 02:01:51;;;;;;;20.93;9.40;;;;;;;;;;5060439;28;20577;-67
2022/04/28 02:04:17;;;;;;;18.73;7.90;;;;;;;;;;5053320;28;20185;-67
2022/04/28 02:06:42;;;;;;;23.20;8.93;;;;;;;;;;5062652;28;20224;-66
2022/04/28 02:09:08;;;;;;;17.43;8.23;;;;;;;;;;5058717;28;20200;-66
2022/04/28 02:11:33;;;;;;;18.90;8.43;;;;;;;;;;5066985;28;20632;-66
2022/04/28 02:13:58;;;;;;;15.50;7.83;;;;;;;;;;5050708;28;20194;-66
2022/04/28 02:16:24;;;;;;;18.20;8.13;;;;;;;;;;5065803;28;20191;-67
2022/04/28 02:18:49;;;;;;;18.83;8.23;;;;;;;;;;5063539;28;20232;-67
2022/04/28 02:21:14;;;;;;;18.97;8.53;;;;;;;;;;5058584;28;20184;-67
2022/04/28 02:23:40;;;;;;;19.50;8.40;;;;;;;;;;5063964;28;20185;-67
2022/04/28 02:26:05;;;;;;;17.03;8.67;;;;;;;;;;5051410;28;20181;-67
2022/04/28 02:28:30;;;;;;;18.37;8.50;;;;;;;;;;5054983;28;20633;-67
2022/04/28 02:30:56;;;;;;;21.17;8.10;;;;;;;;;;5053882;28;20224;-66
2022/04/28 02:33:21;;;;;;;17.50;8.47;;;;;;;;;;5063854;28;20296;-66
2022/04/28 02:35:47;;;;;;;20.53;8.60;;;;;;;;;;5061267;28;20689;-66
2022/04/28 02:38:12;;;;;;;18.20;7.93;;;;;;;;;;5062015;28;20185;-66
2022/04/28 02:40:38;;;;;;;15.67;7.53;;;;;;;;;;5065880;28;20240;-66
2022/04/28 02:43:04;;;;;;;15.80;7.90;;;;;;;;;;5053382;28;20179;-67
2022/04/28 02:45:29;;;;;;;11.43;7.20;;;;;;;;;;5056804;28;20644;-67
2022/04/28 02:47:54;;;;;;;21.53;8.67;;;;;;;;;;5061558;28;20193;-67
2022/04/28 02:50:21;;;;;;;18.97;8.63;;;;;;;;;;5059197;28;20227;-67
2022/04/28 02:52:48;;;;;;;17.70;8.17;;;;;;;;;;5063010;28;20199;-67
2022/04/28 02:55:13;;;;;;;16.17;7.77;;;;;;;;;;5082554;28;20184;-67
2022/04/28 02:57:38;;;;;;;18.77;8.23;;;;;;;;;;5069473;28;20291;-67
2022/04/28 03:00:05;;;;;;;16.33;8.20;;;;;;;;;;5064136;28;20288;-67
2022/04/28 03:02:31;;;;;;;22.50;8.07;;;;;;;;;;5066424;28;20184;-66
2022/04/28 03:04:57;;;;;;;18.50;8.97;;;;;;;;;;5064351;28;20194;-66
2022/04/28 03:12:51;;;;;;;20.20;8.17;;;;;;;;;;5068052;28;20666;-67
2022/04/28 03:15:16;;;;;;;16.67;8.23;;;;;;;;;;5067853;28;20500;-67
2022/04/28 03:17:42;;;;;;;20.03;8.03;;;;;;;;;;5070746;28;20203;-67
2022/04/28 03:20:08;;;;;;;19.53;8.60;;;;;;;;;;5059831;28;20217;-66
2022/04/28 03:22:33;;;;;;;19.87;8.47;;;;;;;;;;5068125;28;20184;-66
2022/04/28 03:24:58;;;;;;;22.37;8.23;;;;;;;;;;5069763;28;20176;-66
2022/04/28 03:27:25;;;;;;;21.53;8.37;;;;;;;;;;5070776;28;20189;-67
2022/04/28 03:29:50;;;;;;;17.27;8.03;;;;;;;;;;5084430;28;20579;-67
2022/04/28 03:32:16;;;;;;;17.77;8.17;;;;;;;;;;5070124;28;20223;-67
2022/04/28 03:34:41;;;;;;;14.87;8.03;;;;;;;;;;5064268;28;20238;-67
2022/04/28 03:37:06;;;;;;;17.83;7.97;;;;;;;;;;5066075;28;20184;-67
2022/04/28 03:39:32;;;;;;;20.07;9.00;;;;;;;;;;5055423;28;20214;-67
2022/04/28 03:41:57;;;;;;;21.40;8.40;;;;;;;;;;5071022;28;20231;-66
2022/04/28 03:44:23;;;;;;;18.50;8.03;;;;;;;;;;5066213;28;20189;-67
2022/04/28 03:46:48;;;;;;;19.83;8.10;;;;;;;;;;5069661;28;20177;-66
2022/04/28 03:49:13;;;;;;;18.10;8.87;;;;;;;;;;5060266;28;20228;-68
2022/04/28 03:51:39;;;;;;;16.57;8.27;;;;;;;;;;5060825;28;20252;-67
2022/04/28 03:54:04;;;;;;;21.73;8.97;;;;;;;;;;5067141;28;20519;-67
2022/04/28 03:56:31;;;;;;;20.47;8.07;;;;;;;;;;5056391;28;20186;-67
2022/04/28 03:59:01;;;;;;;19.37;8.77;;;;;;;;;;5066803;28;20283;-68
2022/04/28 04:01:26;;;;;;;15.50;7.93;;;;;;;;;;5068834;28;20196;-67
2022/04/28 04:03:52;;;;;;;20.10;9.33;;;;;;;;;;5070137;28;20759;-67
2022/04/28 04:06:17;;;;;;;17.73;8.57;;;;;;;;;;5058990;28;20312;-67
2022/04/28 04:08:43;;;;;;;20.90;8.30;;;;;;;;;;5065180;28;20251;-67
2022/04/28 04:11:08;;;;;;;17.00;8.73;;;;;;;;;;5063559;28;20191;-67
2022/04/28 04:13:34;;;;;;;20.23;8.90;;;;;;;;;;5070411;28;20219;-67
2022/04/28 04:16:00;;;;;;;20.27;9.07;;;;;;;;;;5068860;28;20701;-67
2022/04/28 04:18:25;;;;;;;19.40;8.43;;;;;;;;;;5065250;28;20196;-67
2022/04/28 04:20:50;;;;;;;21.23;8.27;;;;;;;;;;5063408;28;20690;-67
2022/04/28 04:23:16;;;;;;;19.80;9.40;;;;;;;;;;5059929;28;20187;-67
2022/04/28 04:25:41;;;;;;;19.50;8.20;;;;;;;;;;5065733;28;20185;-67
2022/04/28 04:28:07;;;;;;;15.37;7.90;;;;;;;;;;5069432;28;20603;-67
2022/04/28 04:33:16;;;;;;;22.90;8.87;;;;;;;;;;5054972;28;20199;-67
2022/04/28 04:35:41;;;;;;;21.67;9.10;;;;;;;;;;5057563;28;20185;-67
2022/04/28 04:38:07;;;;;;;23.17;9.77;;;;;;;;;;5064674;28;20422;-67
2022/04/28 04:40:32;;;;;;;18.67;9.03;;;;;;;;;;5067383;28;20688;-67
2022/04/28 04:42:57;;;;;;;16.33;8.50;;;;;;;;;;5065882;28;20261;-68
2022/04/28 04:45:23;;;;;;;17.97;9.17;;;;;;;;;;5068506;28;20188;-67
2022/04/28 04:47:49;;;;;;;18.00;8.60;;;;;;;;;;5066252;28;20264;-67
2022/04/28 04:50:14;;;;;;;19.80;8.93;;;;;;;;;;5066277;28;20205;-67
2022/04/28 04:52:39;;;;;;;18.77;8.47;;;;;;;;;;5065344;28;20176;-67
2022/04/28 04:55:05;;;;;;;16.70;8.87;;;;;;;;;;5062352;28;20186;-67
2022/04/28 04:57:31;;;;;;;17.03;8.03;;;;;;;;;;5065339;28;20262;-66
2022/04/28 04:59:58;;;;;;;23.33;10.93;;;;;;;;;;5065905;28;20236;-68
2022/04/28 05:02:23;;;;;;;21.80;10.03;;;;;;;;;;5066664;28;20639;-66
2022/04/28 05:04:49;;;;;;;17.53;9.33;;;;;;;;;;5066696;28;20181;-66
2022/04/28 05:07:14;;;;;;;17.33;9.60;;;;;;;;;;5067520;28;20224;-67
2022/04/28 05:09:40;;;;;;;18.67;9.80;;;;;;;;;;5067624;28;20629;-66
2022/04/28 05:12:06;;;;;;;22.33;9.87;;;;;;;;;;5066979;28;20188;-67
2022/04/28 05:14:32;;;;;;;23.30;9.50;;;;;;;;;;5065374;28;20596;-66
2022/04/28 05:16:58;;;;;;;20.40;10.07;;;;;;;;;;5054310;28;20680;-67
2022/04/28 05:19:24;;;;;;;16.47;9.67;;;;;;;;;;5062537;28;20208;-66
2022/04/28 05:21:50;;;;;;;20.60;10.43;;;;;;;;;;5064400;28;20260;-66
2022/04/28 05:24:16;;;;;;;22.10;10.67;;;;;;;;;;5056468;28;20700;-67
2022/04/28 05:26:42;;;;;;;20.57;9.90;;;;;;;;;;5065336;28;20620;-67
2022/04/28 05:29:07;;;;;;;23.90;10.70;;;;;;;;;;5066264;28;20185;-67
2022/04/28 05:31:32;;;;;;;22.17;10.40;;;;;;;;;;5064048;28;20207;-67
2022/04/28 05:33:57;;;;;;;23.67;10.87;;;;;;;;;;5065757;28;20192;-67
2022/04/28 05:36:24;;;;;;;23.50;10.10;;;;;;;;;;5065230;28;20200;-67
2022/04/28 05:38:50;;;;;;;20.23;9.70;;;;;;;;;;5064901;28;20664;-67
2022/04/28 05:41:15;;;;;;;25.20;9.83;;;;;;;;;;5064287;28;20181;-67
2022/04/28 05:46:25;;;;;;;17.37;9.97;;;;;;;;;;5061852;28;20192;-66
2022/04/28 05:48:51;;;;;;;25.17;9.87;;;;;;;;;;5063288;28;20172;-66
2022/04/28 05:51:18;;;;;;;18.13;9.30;;;;;;;;;;5078195;28;20189;-67
2022/04/28 05:53:43;;;;;;;21.20;8.60;;;;;;;;;;5058221;28;20192;-67
2022/04/28 05:56:08;;;;;;;21.70;8.73;;;;;;;;;;5062216;28;20233;-66
2022/04/28 05:58:34;;;;;;;20.87;8.57;;;;;;;;;;5061751;28;20641;-67
2022/04/28 06:00:59;;;;;;;21.00;9.17;;;;;;;;;;5063578;28;20181;-67
2022/04/28 06:03:25;;;;;;;20.03;8.00;;;;;;;;;;5063399;28;20546;-67
2022/04/28 06:05:50;;;;;;;15.77;6.77;;;;;;;;;;5062932;28;20615;-67
2022/04/28 06:08:16;;;;;;;15.57;7.40;;;;;;;;;;5063128;28;20200;-67
2022/04/28 06:10:41;;;;;;;19.37;8.03;;;;;;;;;;5063922;28;20173;-67
2022/04/28 06:13:06;;;;;;;14.73;7.23;;;;;;;;;;5064562;28;20181;-66
2022/04/28 06:15:32;;;;;;;16.60;6.83;;;;;;;;;;5062969;28;20185;-67
2022/04/28 06:17:58;;;;;;;17.80;6.90;;;;;;;;;;5063238;28;20774;-66
2022/04/28 06:20:23;;;;;;;16.63;6.67;;;;;;;;;;5062937;28;20197;-68
2022/04/28 06:22:48;;;;;;;10.57;5.77;;;;;;;;;;5061441;28;20663;-68
2022/04/28 06:25:14;;;;;;;13.83;6.40;;;;;;;;;;5062613;28;20608;-66
2022/04/28 06:27:39;;;;;;;17.03;6.20;;;;;;;;;;5060746;28;20183;-67
2022/04/28 06:30:06;;;;;;;14.23;6.10;;;;;;;;;;5062945;28;20177;-66
2022/04/28 06:32:31;;;;;;;12.27;5.87;;;;;;;;;;5062256;28;20223;-67
2022/04/28 06:34:56;;;;;;;17.47;6.40;;;;;;;;;;5062022;28;20555;-66
2022/04/28 06:37:23;;;;;;;11.53;5.63;;;;;;;;;;5060902;28;20565;-66
2022/04/28 06:39:48;;;;;;;18.23;6.33;;;;;;;;;;5063298;28;20188;-66
2022/04/28 06:42:13;;;;;;;14.90;5.97;;;;;;;;;;5052741;28;20177;-66
2022/04/28 06:44:39;;;;;;;11.80;6.10;;;;;;;;;;5062790;28;20858;-66
2022/04/28 06:47:05;;;;;;;15.40;6.00;;;;;;;;;;5079123;28;20185;-66
2022/04/28 06:49:31;;;;;;;16.63;6.33;;;;;;;;;;5056228;28;20250;-67
2022/04/28 06:51:56;;;;;;;10.40;4.87;;;;;;;;;;5059001;28;20583;-66
2022/04/28 06:54:22;;;;;;;15.63;5.37;;;;;;;;;;5064209;28;20180;-66
2022/04/28 06:56:47;;;;;;;11.67;5.17;;;;;;;;;;5061910;28;20173;-66
2022/04/28 06:59:13;;;;;;;11.60;5.03;;;;;;;;;;5063837;28;20229;-66
2022/04/28 07:01:39;;;;;;;13.07;4.60;;;;;;;;;;5063932;28;20508;-67
2022/04/28 07:04:04;;;;;;;10.17;5.10;;;;;;;;;;5066613;28;20205;-66
2022/04/28 07:06:29;;;;;;;12.57;4.97;;;;;;;;;;5080164;28;20228;-66
2022/04/28 07:08:55;;;;;;;10.57;4.90;;;;;;;;;;5064758;28;21413;-67
2022/04/28 07:11:20;;;;;;;12.33;5.40;;;;;;;;;;5064379;28;20527;-67
2022/04/28 07:13:46;;;;;;;12.10;5.27;;;;;;;;;;5065657;28;20229;-67
2022/04/28 07:16:11;;;;;;;16.50;5.93;;;;;;;;;;5062527;28;20189;-66
2022/04/28 07:18:36;;;;;;;12.13;5.57;;;;;;;;;;5066188;28;20189;-67
2022/04/28 07:21:03;;;;;;;11.57;5.70;;;;;;;;;;5063713;28;20649;-66
2022/04/28 07:23:28;;;;;;;13.00;5.10;;;;;;;;;;5064892;28;20236;-66
2022/04/28 07:25:54;;;;;;;10.43;4.77;;;;;;;;;;5062363;28;20177;-66
2022/04/28 07:28:19;;;;;;;11.40;4.40;;;;;;;;;;5065770;28;20234;-66
2022/04/28 07:30:45;;;;;;;9.90;3.77;;;;;;;;;;5064040;28;20224;-66
2022/04/28 07:33:11;;;;;;;11.87;4.20;;;;;;;;;;5064887;28;20204;-66
2022/04/28 07:35:37;;;;;;;12.13;4.10;;;;;;;;;;5065899;28;20253;-66
2022/04/28 07:38:02;;;;;;;13.20;4.00;;;;;;;;;;5066297;28;20280;-66
2022/04/28 07:40:29;;;;;;;7.83;3.40;;;;;;;;;;5066908;28;20204;-67
2022/04/28 07:42:54;;;;;;;8.68;3.70;;;;;;;;;;5068733;28;20192;-66
2022/04/28 07:45:20;;;;;;;10.40;3.80;;;;;;;;;;5063351;28;20211;-67
2022/04/28 07:47:45;;;;;;;9.85;3.83;;;;;;;;;;5065463;28;20177;-66
2022/04/28 07:50:11;;;;;;;8.05;3.40;;;;;;;;;;5068795;28;20543;-66
2022/04/28 07:52:38;;;;;;;10.10;3.28;;;;;;;;;;5066592;28;20648;-67
2022/04/28 07:55:05;;;;;;;9.23;3.05;;;;;;;;;;5068363;28;20470;-66
2022/04/28 07:57:31;;;;;;;5.88;3.15;;;;;;;;;;5066745;28;20211;-66
2022/04/28 07:59:57;;;;;;;8.32;2.97;;;;;;;;;;5068628;28;20204;-67
2022/04/28 08:02:22;;;;;;;8.02;3.90;;;;;;;;;;5065666;28;20193;-67
2022/04/28 08:04:48;;;;;;;9.15;4.07;;;;;;;;;;5066150;28;20181;-67
2022/04/28 08:07:13;;;;;;;6.75;3.28;;;;;;;;;;5064412;28;20299;-67
2022/04/28 08:09:39;;;;;;;6.22;3.22;;;;;;;;;;5067051;28;20177;-68
2022/04/28 08:12:05;;;;;;;6.72;3.10;;;;;;;;;;5067500;28;20212;-67
2022/04/28 08:14:32;;;;;;;7.82;3.33;;;;;;;;;;5067173;28;20192;-66
2022/04/28 08:16:58;;;;;;;8.63;4.18;;;;;;;;;;5064476;28;20275;-67
2022/04/28 08:19:24;;;;;;;10.55;3.63;;;;;;;;;;5065513;28;20279;-67
2022/04/28 08:21:50;;;;;;;8.85;3.60;;;;;;;;;;5063479;28;20185;-67
2022/04/28 08:24:16;;;;;;;7.75;3.60;;;;;;;;;;5064735;28;20185;-67
2022/04/28 08:26:42;;;;;;;9.60;3.30;;;;;;;;;;5068084;28;20267;-67
2022/04/28 08:29:07;;;;;;;7.13;3.70;;;;;;;;;;5067847;28;20271;-67
2022/04/28 08:31:33;;;;;;;10.85;3.88;;;;;;;;;;5064527;28;20636;-67
2022/04/28 08:33:58;;;;;;;10.40;3.90;;;;;;;;;;5063999;28;20195;-68
2022/04/28 08:36:25;;;;;;;8.82;3.90;;;;;;;;;;5063181;28;20203;-67
2022/04/28 08:38:50;;;;;;;11.70;3.30;;;;;;;;;;5065015;28;20253;-67
2022/04/28 08:41:45;;;;;;;6.70;3.67;;;;;;;;;;5064425;28;20189;-67
2022/04/28 08:44:17;;;;;;;11.25;3.97;;;;;;;;;;5064037;28;21464;-67
2022/04/28 08:46:53;;;;;;;6.22;3.45;;;;;;;;;;5064455;28;20181;-68
2022/04/28 08:49:30;;;;;;;6.32;3.45;;;;;;;;;;5068523;28;20270;-67
2022/04/28 08:51:57;;;;;;;9.88;3.80;;;;;;;;;;5062731;28;20232;-67
2022/04/28 08:54:24;;;;;;;10.02;3.78;;;;;;;;;;5067679;28;20258;-67
2022/04/28 08:56:51;;;;;;;6.70;4.00;;;;;;;;;;5064294;28;20184;-67
2022/04/28 08:59:20;;;;;;;7.32;3.88;;;;;;;;;;5072019;28;20204;-67
2022/04/28 09:01:46;;;;;;;8.07;4.07;;;;;;;;;;5064936;28;20177;-68
2022/04/28 09:04:12;;;;;;;11.18;4.43;;;;;;;;;;5063078;28;20432;-66
2022/04/28 09:06:40;;;;;;;8.48;3.97;;;;;;;;;;5057912;28;20227;-66
2022/04/28 09:09:11;;;;;;;12.82;4.70;;;;;;;;;;5065283;28;20180;-66
2022/04/28 09:11:39;;;;;;;7.63;4.22;;;;;;;;;;5066412;28;20279;-68
2022/04/28 09:14:10;;;;;;;10.80;4.38;;;;;;;;;;5064791;28;20185;-67
2022/04/28 09:16:42;;;;;;;10.32;4.60;;;;;;;;;;5060070;28;20181;-67
2022/04/28 09:19:09;;;;;;;8.95;4.80;;;;;;;;;;5065739;28;20316;-67
2022/04/28 09:21:36;;;;;;;12.15;5.03;;;;;;;;;;5055895;28;20547;-67
2022/04/28 09:24:03;;;;;;;7.20;4.53;;;;;;;;;;5059748;28;20216;-67
2022/04/28 09:26:30;;;;;;;9.63;4.70;;;;;;;;;;5064754;28;20207;-67
2022/04/28 09:28:55;;;;;;;9.32;5.18;;;;;;;;;;5064965;28;20187;-68
2022/04/28 09:31:23;;;;;;;10.20;4.45;;;;;;;;;;5068123;28;20197;-68
2022/04/28 09:33:49;;;;;;;12.55;4.55;;;;;;;;;;5066571;28;20208;-68
2022/04/28 09:36:14;;;;;;;7.78;4.30;;;;;;;;;;5064513;28;20196;-68
2022/04/28 09:38:40;;;;;;;10.45;4.57;;;;;;;;;;5058839;28;20247;-68
2022/04/28 09:43:55;;;;;;;16.30;4.95;;;;;;;;;;5068202;28;20569;-67
2022/04/28 09:46:23;;;;;;;8.95;4.72;;;;;;;;;;5063146;28;20613;-68
2022/04/28 09:48:49;;;;;;;8.00;5.25;;;;;;;;;;5062172;28;20253;-68
2022/04/28 09:51:21;;;;;;;9.63;4.95;;;;;;;;;;5064311;28;20185;-67
2022/04/28 09:53:48;;;;;;;12.80;5.07;;;;;;;;;;5065016;28;20183;-66
2022/04/28 09:56:16;;;;;;;10.73;4.70;;;;;;;;;;5065004;28;20177;-67
2022/04/28 09:58:42;;;;;;;10.60;4.90;;;;;;;;;;5063886;28;20177;-67
2022/04/28 10:01:08;;;;;;;10.35;5.50;;;;;;;;;;5065547;28;20679;-67
2022/04/28 10:03:33;;;;;;;12.85;5.28;;;;;;;;;;5055679;28;20204;-68
2022/04/28 10:06:02;;;;;;;14.30;5.97;;;;;;;;;;5079126;28;20591;-68
2022/04/28 10:08:32;;;;;;;10.07;4.85;;;;;;;;;;5064435;28;20181;-68
2022/04/28 10:11:00;;;;;;;9.13;5.68;;;;;;;;;;5060022;28;20799;-68
2022/04/28 10:13:30;;;;;;;13.30;5.50;;;;;;;;;;5061715;28;20185;-67
2022/04/28 10:15:59;;;;;;;9.20;4.53;;;;;;;;;;5058854;28;20667;-67
2022/04/28 10:18:32;;;;;;;12.10;4.63;;;;;;;;;;5057128;28;20254;-67
2022/04/28 10:21:00;;;;;;;10.75;5.05;;;;;;;;;;5065406;28;20423;-67
2022/04/28 10:34:32;;;;;;;10.57;5.03;;;;;;;;;;5058932;28;20647;-68
2022/04/28 10:37:00;;;;;;;11.05;4.90;;;;;;;;;;5070462;28;20211;-67
2022/04/28 10:39:32;;;;;;;9.15;4.70;;;;;;;;;;5064543;28;20659;-67
2022/04/28 10:41:57;;;;;;;8.32;4.70;;;;;;;;;;5063124;28;20676;-68
2022/04/28 10:44:29;;;;;;;21.63;4.70;;;;;;;;;;5061872;28;20189;-66
2022/04/28 10:46:59;;;;;;;7.82;4.60;;;;;;;;;;5064374;28;20188;-67
2022/04/28 10:49:25;;;;;;;10.40;4.90;;;;;;;;;;5057013;28;20687;-68
2022/04/28 10:51:56;;;;;;;7.82;4.82;;;;;;;;;;5060125;28;20252;-66
2022/04/28 10:54:23;;;;;;;8.32;5.25;;;;;;;;;;5056414;28;20180;-66
2022/04/28 10:56:50;;;;;;;10.80;4.80;;;;;;;;;;5062862;28;20192;-69
2022/04/28 11:01:53;;;;;;;8.93;4.60;;;;;;;;;;5059200;28;20620;-67
2022/04/28 11:04:23;;;;;;;10.25;4.55;;;;;;;;;;5063222;28;20204;-67
2022/04/28 11:06:55;;;;;;;12.75;4.85;;;;;;;;;;5056513;28;20252;-67
2022/04/28 11:09:32;;;;;;;11.15;5.30;;;;;;;;;;5058193;28;20246;-70
2022/04/28 11:12:07;;;;;;;10.70;4.95;;;;;;;;;;5067600;28;20180;-67
2022/04/28 11:14:47;;;;;;;14.05;5.20;;;;;;;;;;5063956;28;20193;-67
2022/04/28 11:17:14;;;;;;;13.05;5.57;;;;;;;;;;5055654;28;20272;-67
2022/04/28 11:19:41;;;;;;;9.00;4.88;;;;;;;;;;5066798;28;20208;-67
2022/04/28 11:22:06;;;;;;;12.20;4.38;;;;;;;;;;5061701;28;20191;-67
2022/04/28 11:24:32;;;;;;;7.10;4.47;;;;;;;;;;5062007;28;21981;-67
2022/04/28 11:27:01;;;;;;;8.38;4.75;;;;;;;;;;5066647;28;20195;-67
2022/04/28 11:29:28;;;;;;;9.35;4.60;;;;;;;;;;5055150;28;20230;-67
2022/04/28 11:31:54;;;;;;;8.30;4.53;;;;;;;;;;5067625;28;20212;-67
2022/04/28 11:34:20;;;;;;;9.82;4.78;;;;;;;;;;5066225;28;20192;-67
2022/04/28 11:36:46;;;;;;;12.23;5.07;;;;;;;;;;5062275;28;20192;-68
2022/04/28 11:39:11;;;;;;;9.55;4.68;;;;;;;;;;5068773;28;20189;-68
2022/04/28 11:41:41;;;;;;;9.65;4.53;;;;;;;;;;5070341;28;20181;-67
2022/04/28 11:44:13;;;;;;;16.02;4.40;;;;;;;;;;5068739;28;20211;-68
2022/04/28 11:46:42;;;;;;;7.28;4.53;;;;;;;;;;5069127;28;20264;-67
2022/04/28 11:49:07;;;;;;;9.80;4.30;;;;;;;;;;5069221;28;20181;-74
2022/04/28 11:51:34;;;;;;;10.75;4.60;;;;;;;;;;5061933;28;20192;-72
2022/04/28 11:54:01;;;;;;;10.23;4.38;;;;;;;;;;5084229;28;20596;-71
2022/04/28 11:56:29;;;;;;;9.95;4.65;;;;;;;;;;5065762;28;20433;-67
2022/04/28 11:58:55;;;;;;;7.63;3.97;;;;;;;;;;5063873;28;20186;-67
2022/04/28 12:01:21;;;;;;;7.13;4.00;;;;;;;;;;5069735;28;20181;-67
2022/04/28 12:03:48;;;;;;;9.20;4.53;;;;;;;;;;5060457;28;20180;-67
2022/04/28 12:06:15;;;;;;;7.30;4.18;;;;;;;;;;5065430;28;20285;-68
2022/04/28 12:08:40;;;;;;;8.95;4.80;;;;;;;;;;5056156;28;20307;-70
2022/04/28 12:19:21;;;;;;;11.27;4.68;;;;;;;;;;5068874;28;20216;-68
2022/04/28 12:21:46;;;;;;;8.27;4.40;;;;;;;;;;5067932;28;20181;-68
2022/04/28 12:24:15;;;;;;;12.07;4.40;;;;;;;;;;5068860;28;20700;-66
2022/04/28 12:26:42;;;;;;;8.23;4.38;;;;;;;;;;5060991;28;20212;-66
2022/04/28 12:29:12;;;;;;;7.93;4.90;;;;;;;;;;5057683;28;20180;-66
2022/04/28 12:31:39;;;;;;;7.22;4.18;;;;;;;;;;5067166;28;20219;-66
2022/04/28 12:34:20;;;;;;;10.43;4.57;;;;;;;;;;5059982;28;20194;-67
2022/04/28 12:36:48;;;;;;;12.35;3.55;;;;;;;;;;5056578;28;20671;-69
2022/04/28 12:39:15;;;;;;;8.25;4.25;;;;;;;;;;5068078;28;20340;-67
2022/04/28 12:41:42;;;;;;;7.97;3.70;;;;;;;;;;5064242;28;20181;-67
2022/04/28 12:44:07;;;;;;;5.53;3.63;;;;;;;;;;5061487;28;20176;-67
2022/04/28 12:46:38;;;;;;;6.30;3.97;;;;;;;;;;5064438;28;20193;-67
2022/04/28 12:49:05;;;;;;;8.23;3.63;;;;;;;;;;5053853;28;20193;-67
2022/04/28 12:51:41;;;;;;;9.52;3.95;;;;;;;;;;5057514;28;20231;-68
2022/04/28 12:54:12;;;;;;;10.13;3.88;;;;;;;;;;5051536;28;20211;-67
2022/04/28 12:56:39;;;;;;;4.20;3.50;;;;;;;;;;5058160;28;20177;-67
2022/04/28 12:59:08;;;;;;;5.85;3.13;;;;;;;;;;5063683;28;20518;-68
2022/04/28 13:01:34;;;;;;;7.22;3.10;;;;;;;;;;5058332;28;20219;-68
2022/04/28 13:04:18;;;;;;;12.35;3.78;;;;;;;;;;5062434;28;20183;-68
2022/04/28 13:06:45;;;;;;;7.13;3.15;;;;;;;;;;5069437;28;20255;-66
2022/04/28 13:09:13;;;;;;;9.75;3.50;;;;;;;;;;5066155;28;20260;-67
2022/04/28 13:11:40;;;;;;;8.00;3.47;;;;;;;;;;5061943;28;20260;-67
2022/04/28 13:14:14;;;;;;;6.50;2.85;;;;;;;;;;5055756;28;20209;-67
2022/04/28 13:16:40;;;;;;;8.60;3.60;;;;;;;;;;5064812;28;20208;-67
2022/04/28 13:19:08;;;;;;;9.93;2.97;;;;;;;;;;5054900;28;20182;-67
2022/04/28 13:21:34;;;;;;;7.15;2.67;;;;;;;;;;5065395;28;20192;-68
2022/04/28 13:23:59;;;;;;;7.90;2.80;;;;;;;;;;5059722;28;20185;-68
2022/04/28 13:26:27;;;;;;;6.13;2.80;;;;;;;;;;5061969;28;20230;-68
2022/04/28 13:28:53;;;;;;;9.15;2.88;;;;;;;;;;5055387;28;20181;-68
2022/04/28 13:31:19;;;;;;;5.00;3.03;;;;;;;;;;5061105;28;20209;-67
2022/04/28 13:33:45;;;;;;;7.57;2.83;;;;;;;;;;5058852;28;20226;-67
2022/04/28 13:36:12;;;;;;;9.40;3.30;;;;;;;;;;5067356;28;20662;-68
2022/04/28 13:38:38;;;;;;;5.95;2.70;;;;;;;;;;5061713;28;20180;-67
2022/04/28 13:41:05;;;;;;;9.52;3.20;;;;;;;;;;5062646;28;20692;-66
2022/04/28 13:43:33;;;;;;;9.27;3.10;;;;;;;;;;5063969;28;20180;-67
2022/04/28 13:46:15;;;;;;;6.20;2.67;;;;;;;;;;5064114;28;20496;-67
2022/04/28 13:48:40;;;;;;;6.00;2.75;;;;;;;;;;5061799;28;20184;-68
2022/04/28 13:51:07;;;;;;;5.57;2.85;;;;;;;;;;5067812;28;20184;-67
2022/04/28 13:53:33;;;;;;;7.05;2.90;;;;;;;;;;5065861;28;20431;-66
2022/04/28 13:56:06;;;;;;;8.65;3.10;;;;;;;;;;5065098;28;20207;-66
2022/04/28 13:58:32;;;;;;;7.40;3.45;;;;;;;;;;5057157;28;20181;-67
2022/04/28 14:00:58;;;;;;;11.23;3.58;;;;;;;;;;5063439;28;20196;-67
2022/04/28 14:03:29;;;;;;;6.90;3.55;;;;;;;;;;5066588;28;20215;-67
2022/04/28 14:05:56;;;;;;;7.35;3.55;;;;;;;;;;5064989;28;20239;-67
2022/04/28 14:08:22;;;;;;;10.73;4.05;;;;;;;;;;5067206;28;20196;-67
2022/04/28 14:10:49;;;;;;;7.07;3.40;;;;;;;;;;5064123;28;20664;-67
2022/04/28 14:13:15;;;;;;;6.38;3.05;;;;;;;;;;5068360;28;20647;-68
2022/04/28 14:15:43;;;;;;;5.95;3.22;;;;;;;;;;5063732;28;20204;-74
2022/04/28 14:18:08;;;;;;;5.90;3.35;;;;;;;;;;5080721;28;20264;-67
2022/04/28 14:20:34;;;;;;;6.03;3.13;;;;;;;;;;5058467;28;20300;-69
2022/04/28 14:23:00;;;;;;;9.27;3.65;;;;;;;;;;5061967;28;20529;-67
2022/04/28 14:25:25;;;;;;;9.45;3.58;;;;;;;;;;5059536;28;20192;-68
2022/04/28 14:27:51;;;;;;;7.45;3.35;;;;;;;;;;5063239;28;20175;-67
2022/04/28 14:30:17;;;;;;;6.72;3.58;;;;;;;;;;5064065;28;20193;-68
2022/04/28 14:32:42;;;;;;;8.82;3.67;;;;;;;;;;5058966;28;20180;-67
2022/04/28 14:35:09;;;;;;;8.98;3.58;;;;;;;;;;5057664;28;20246;-66
2022/04/28 14:37:37;;;;;;;10.50;4.03;;;;;;;;;;5065552;28;20640;-66
2022/04/28 14:40:05;;;;;;;10.75;3.65;;;;;;;;;;5059586;28;20245;-67
2022/04/28 14:42:30;;;;;;;9.45;3.80;;;;;;;;;;5059670;28;20235;-67
2022/04/28 14:44:55;;;;;;;8.13;3.72;;;;;;;;;;5059960;28;20757;-67
2022/04/28 14:47:21;;;;;;;7.38;3.28;;;;;;;;;;5064922;28;20267;-66
2022/04/28 14:52:33;;;;;;;7.30;3.63;;;;;;;;;;5066556;28;20230;-66
2022/04/28 14:55:04;;;;;;;6.68;3.40;;;;;;;;;;5061043;28;20184;-66
2022/04/28 14:57:32;;;;;;;7.20;3.47;;;;;;;;;;5065379;28;20216;-66
2022/04/28 14:59:58;;;;;;;11.82;4.38;;;;;;;;;;5063659;28;20287;-66
2022/04/28 15:02:25;;;;;;;11.60;4.82;;;;;;;;;;5065119;28;20311;-67
2022/04/28 15:04:51;;;;;;;8.65;3.80;;;;;;;;;;5063134;28;20234;-67
2022/04/28 15:07:16;;;;;;;7.63;3.75;;;;;;;;;;5056547;28;20233;-67
2022/04/28 15:09:44;;;;;;;6.72;3.33;;;;;;;;;;5061575;28;20191;-67
2022/04/28 15:12:10;;;;;;;11.80;3.60;;;;;;;;;;5065315;28;20188;-68
2022/04/28 15:14:36;;;;;;;7.53;3.50;;;;;;;;;;5061208;28;20225;-67
2022/04/28 15:17:03;;;;;;;11.60;3.58;;;;;;;;;;5067658;28;20259;-68